Time;durP1;ratioP1;P1;durP2;ratioP2;P2;SDS_P1;SDS_P2;PMS_P1;PMS_P2;Temp;Humidity;BMP_temperature;BMP_pressure;BME280_temperature;BME280_humidity;BME280_pressure;Samples;Min_cycle;Max_cycle;Signal;HPM_P1;HPM_P2
2022/10/28 00:00:50;;;;;;;6.05;4.13;;;;;;;14.59;nan;100154.13;4916127;29;20392;-77
2022/10/28 00:03:16;;;;;;;9.68;4.68;;;;;;;14.59;nan;100160.28;4901022;29;20424;-77
2022/10/28 00:05:41;;;;;;;7.18;5.68;;;;;;;14.60;nan;100156.66;4900959;29;20186;-77
2022/10/28 00:08:07;;;;;;;7.87;4.80;;;;;;;14.61;nan;100154.88;4896011;29;20730;-77
2022/10/28 00:10:32;;;;;;;13.33;5.67;;;;;;;14.59;nan;100157.63;4900092;29;20711;-77
2022/10/28 00:12:58;;;;;;;7.00;4.37;;;;;;;14.55;nan;100161.44;4901528;29;20313;-77
2022/10/28 00:15:23;;;;;;;5.97;4.13;;;;;;;14.54;nan;100158.91;4899015;29;20198;-78
2022/10/28 00:17:49;;;;;;;10.80;5.90;;;;;;;14.54;nan;100156.25;4904204;29;20190;-78
2022/10/28 00:20:17;;;;;;;6.40;4.50;;;;;;;14.54;nan;100159.75;4903626;29;20262;-78
2022/10/28 00:22:42;;;;;;;10.60;5.32;;;;;;;14.52;nan;100164.28;4903882;29;20202;-78
2022/10/28 00:25:08;;;;;;;7.67;4.47;;;;;;;14.50;nan;100158.25;4901697;29;20784;-77
2022/10/28 00:27:34;;;;;;;6.53;4.25;;;;;;;14.47;nan;100169.03;4904151;29;20596;-77
2022/10/28 00:30:00;;;;;;;10.67;4.13;;;;;;;14.45;nan;100175.41;4904818;29;20663;-77
2022/10/28 00:32:29;;;;;;;8.02;4.72;;;;;;;14.42;nan;100176.47;4905058;29;20186;-78
2022/10/28 00:34:55;;;;;;;12.65;4.45;;;;;;;14.40;nan;100167.78;4903742;29;20592;-78
2022/10/28 00:37:20;;;;;;;7.50;4.53;;;;;;;14.38;nan;100165.25;4904170;29;20190;-78
2022/10/28 00:39:46;;;;;;;9.07;4.00;;;;;;;14.33;nan;100162.06;4904103;29;20556;-77
2022/10/28 00:42:16;;;;;;;8.20;4.40;;;;;;;14.31;nan;100168.41;4904023;29;20199;-78
2022/10/28 00:44:44;;;;;;;7.53;4.75;;;;;;;14.28;nan;100166.84;4903030;29;20223;-78
2022/10/28 00:47:35;;;;;;;5.40;4.07;;;;;;;14.26;nan;100166.13;4902695;29;20852;-77
2022/10/28 00:50:16;;;;;;;8.05;5.30;;;;;;;14.20;nan;100173.63;4916383;29;20286;-78
2022/10/28 00:52:45;;;;;;;6.78;4.28;;;;;;;14.17;nan;100172.03;4905456;29;20206;-78
2022/10/28 00:55:14;;;;;;;5.72;4.82;;;;;;;14.16;nan;100167.72;4902507;29;20651;-78
2022/10/28 00:57:41;;;;;;;9.05;4.60;;;;;;;14.16;nan;100180.91;4902806;29;20257;-78
2022/10/28 01:00:07;;;;;;;5.93;3.70;;;;;;;14.15;nan;100176.59;4902683;29;20229;-78
2022/10/28 01:02:42;;;;;;;5.28;4.70;;;;;;;14.14;nan;100180.16;4904952;29;20289;-78
2022/10/28 01:05:08;;;;;;;11.20;5.15;;;;;;;14.09;nan;100177.00;4903821;29;20190;-78
2022/10/28 01:07:34;;;;;;;8.10;4.60;;;;;;;14.06;nan;100177.22;4902001;29;20214;-78
2022/10/28 01:09:59;;;;;;;7.40;5.63;;;;;;;14.00;nan;100172.38;4904166;29;20731;-78
2022/10/28 01:12:40;;;;;;;7.07;4.50;;;;;;;13.94;nan;100171.00;4903693;29;20591;-78
2022/10/28 01:15:29;;;;;;;5.60;5.05;;;;;;;13.91;nan;100179.97;4901070;29;20186;-78
2022/10/28 01:18:05;;;;;;;14.38;4.93;;;;;;;13.91;nan;100187.06;4902203;29;20195;-78
2022/10/28 01:20:43;;;;;;;8.40;4.55;;;;;;;13.85;nan;100183.03;4902347;29;20191;-78
2022/10/28 01:23:36;;;;;;;5.10;4.55;;;;;;;13.84;nan;100181.31;4903454;29;20289;-79
2022/10/28 01:26:22;;;;;;;4.90;3.38;;;;;;;13.83;nan;100174.38;4904405;29;20194;-78
2022/10/28 01:29:01;;;;;;;6.32;4.93;;;;;;;13.79;nan;100170.22;4905745;29;20210;-77
2022/10/28 01:31:33;;;;;;;7.75;4.35;;;;;;;13.78;nan;100179.13;4905722;29;20210;-77
2022/10/28 01:34:14;;;;;;;6.32;4.82;;;;;;;13.73;nan;100173.28;4904712;29;20293;-78
2022/10/28 01:36:46;;;;;;;5.80;3.90;;;;;;;13.70;nan;100168.22;4904638;29;20240;-77
2022/10/28 01:39:16;;;;;;;8.63;3.75;;;;;;;13.72;nan;100174.25;4902473;29;20636;-77
2022/10/28 01:41:52;;;;;;;6.40;3.80;;;;;;;13.73;nan;100173.28;4904204;29;20195;-77
2022/10/28 01:44:25;;;;;;;8.65;4.13;;;;;;;13.75;nan;100163.47;4900878;29;20209;-77
2022/10/28 01:47:01;;;;;;;7.32;4.25;;;;;;;13.78;nan;100160.63;4903796;29;20187;-77
2022/10/28 01:49:41;;;;;;;6.97;4.20;;;;;;;13.82;nan;100154.19;4901422;29;20504;-77
2022/10/28 01:52:11;;;;;;;4.63;3.75;;;;;;;13.84;nan;100162.00;4904137;29;20186;-77
2022/10/28 01:54:41;;;;;;;6.53;3.83;;;;;;;13.82;nan;100150.69;4902583;29;20330;-77
2022/10/28 01:57:09;;;;;;;8.07;4.57;;;;;;;13.81;nan;100143.72;4901538;29;20191;-77
2022/10/28 01:59:36;;;;;;;8.38;4.93;;;;;;;13.77;nan;100143.13;4903697;29;20214;-77
2022/10/28 02:02:01;;;;;;;8.30;5.20;;;;;;;13.76;nan;100140.56;4902018;29;20639;-77
2022/10/28 02:04:27;;;;;;;11.60;4.33;;;;;;;13.77;nan;100144.88;4902113;29;20191;-77
2022/10/28 02:06:55;;;;;;;8.30;5.90;;;;;;;13.78;nan;100144.78;4902307;29;20186;-77
2022/10/28 02:09:29;;;;;;;7.32;4.28;;;;;;;13.81;nan;100143.72;4903808;29;20363;-77
2022/10/28 02:12:19;;;;;;;13.77;4.82;;;;;;;13.80;nan;100142.03;4902552;29;20272;-77
2022/10/28 02:15:21;;;;;;;7.93;5.10;;;;;;;13.79;nan;100133.25;4900137;29;20695;-77
2022/10/28 02:18:13;;;;;;;7.72;4.70;;;;;;;13.79;nan;100141.19;4902595;29;20201;-77
2022/10/28 02:20:54;;;;;;;7.47;4.18;;;;;;;13.80;nan;100134.97;4903486;29;20277;-77
2022/10/28 02:23:33;;;;;;;8.10;4.20;;;;;;;13.81;nan;100134.00;4903302;29;20214;-77
2022/10/28 02:26:30;;;;;;;8.60;4.25;;;;;;;13.80;nan;100134.97;4904410;29;20264;-79
2022/10/28 02:29:04;;;;;;;7.20;4.50;;;;;;;13.79;nan;100135.06;4905032;29;20261;-79
2022/10/28 02:31:45;;;;;;;7.82;5.30;;;;;;;13.77;nan;100145.75;4902634;29;20773;-79
2022/10/28 02:34:16;;;;;;;11.23;5.00;;;;;;;13.78;nan;100142.16;4905020;29;20241;-79
2022/10/28 02:36:47;;;;;;;4.25;3.83;;;;;;;13.79;nan;100138.53;4906483;29;20198;-79
2022/10/28 02:39:16;;;;;;;7.65;5.30;;;;;;;13.83;nan;100131.28;4905356;29;20186;-80
2022/10/28 02:41:56;;;;;;;8.98;4.85;;;;;;;13.82;nan;100127.75;4908467;29;20206;-80
2022/10/28 02:44:32;;;;;;;8.80;4.88;;;;;;;13.80;nan;100132.34;4907749;29;20198;-80
2022/10/28 02:47:03;;;;;;;7.43;4.97;;;;;;;13.81;nan;100131.38;4903913;29;20206;-79
2022/10/28 02:49:32;;;;;;;6.38;4.45;;;;;;;13.85;nan;100127.59;4899275;29;20494;-78
2022/10/28 02:52:01;;;;;;;10.75;5.68;;;;;;;13.85;nan;100121.44;4900297;29;20202;-79
2022/10/28 02:54:31;;;;;;;11.40;5.45;;;;;;;13.81;nan;100120.81;4901280;29;20253;-78
2022/10/28 02:57:11;;;;;;;6.18;4.15;;;;;;;13.83;nan;100126.00;4899504;29;20201;-79
2022/10/28 02:59:36;;;;;;;11.60;4.32;;;;;;;13.82;nan;100113.72;4902691;29;20221;-78
2022/10/28 03:02:02;;;;;;;7.17;4.00;;;;;;;13.80;nan;100118.25;4903201;29;20553;-78
2022/10/28 03:04:27;;;;;;;9.43;4.40;;;;;;;13.78;nan;100115.75;4900288;29;20228;-78
2022/10/28 03:06:53;;;;;;;11.47;4.50;;;;;;;13.76;nan;100116.78;4898702;29;20656;-79
2022/10/28 03:09:18;;;;;;;10.53;4.37;;;;;;;13.76;nan;100120.28;4901163;29;20234;-78
2022/10/28 03:11:44;;;;;;;4.10;3.63;;;;;;;13.76;nan;100111.50;4900697;29;20225;-79
2022/10/28 03:14:09;;;;;;;11.67;4.83;;;;;;;13.74;nan;100116.88;4898489;29;21003;-79
2022/10/28 03:16:34;;;;;;;5.60;4.27;;;;;;;13.72;nan;100119.66;4900961;29;20218;-78
2022/10/28 03:19:00;;;;;;;10.27;5.13;;;;;;;13.73;nan;100116.06;4901882;29;20229;-78
2022/10/28 03:21:25;;;;;;;8.87;4.70;;;;;;;13.72;nan;100111.72;4900479;29;20273;-79
2022/10/28 03:23:51;;;;;;;9.13;5.07;;;;;;;13.72;nan;100108.25;4900014;29;20282;-78
2022/10/28 03:26:16;;;;;;;7.07;4.90;;;;;;;13.70;nan;100110.16;4900261;29;20269;-78
2022/10/28 03:28:41;;;;;;;11.33;5.37;;;;;;;13.71;nan;100107.38;4899294;29;20210;-78
2022/10/28 03:31:07;;;;;;;10.20;4.13;;;;;;;13.73;nan;100104.66;4905597;29;20589;-78
2022/10/28 03:33:32;;;;;;;6.73;5.37;;;;;;;13.74;nan;100095.78;4903894;29;20720;-78
2022/10/28 03:35:58;;;;;;;7.60;4.90;;;;;;;13.72;nan;100100.34;4900390;29;20194;-79
2022/10/28 03:38:23;;;;;;;9.73;5.10;;;;;;;13.75;nan;100092.19;4895612;29;20182;-78
2022/10/28 03:40:50;;;;;;;10.53;5.10;;;;;;;13.79;nan;100091.03;4898089;29;20276;-79
2022/10/28 03:43:16;;;;;;;9.52;5.22;;;;;;;13.83;nan;100089.88;4895211;29;20211;-79
2022/10/28 03:45:42;;;;;;;8.95;4.68;;;;;;;13.86;nan;100084.38;4895699;29;20214;-78
2022/10/28 03:48:07;;;;;;;10.45;4.57;;;;;;;13.91;nan;100076.97;4897921;29;20233;-78
2022/10/28 03:50:33;;;;;;;8.17;4.53;;;;;;;13.94;nan;100076.75;4899202;29;20607;-79
2022/10/28 03:52:59;;;;;;;13.33;4.60;;;;;;;13.96;nan;100081.94;4901816;29;20620;-78
2022/10/28 03:55:24;;;;;;;11.60;6.47;;;;;;;13.99;nan;100083.50;4899183;29;20635;-78
2022/10/28 03:57:50;;;;;;;11.63;8.00;;;;;;;14.01;nan;100084.25;4897910;29;20198;-79
2022/10/28 04:00:16;;;;;;;11.52;6.63;;;;;;;14.04;nan;100091.94;4899990;29;20198;-78
2022/10/28 04:02:42;;;;;;;15.27;6.95;;;;;;;14.05;nan;100083.09;4901544;29;20298;-78
2022/10/28 04:05:08;;;;;;;13.93;7.73;;;;;;;14.04;nan;100097.22;4900014;29;20223;-80
2022/10/28 04:07:34;;;;;;;13.07;5.60;;;;;;;14.03;nan;100085.81;4896453;29;20210;-79
2022/10/28 04:09:59;;;;;;;9.73;4.80;;;;;;;14.06;nan;100085.59;4899332;29;20670;-80
2022/10/28 04:12:24;;;;;;;9.37;4.30;;;;;;;14.07;nan;100087.31;4921246;29;20594;-81
2022/10/28 04:14:50;;;;;;;7.27;5.10;;;;;;;14.10;nan;100086.25;4902534;29;20241;-78
2022/10/28 04:17:15;;;;;;;7.97;5.20;;;;;;;14.12;nan;100084.31;4897612;29;20191;-79
2022/10/28 04:19:41;;;;;;;6.30;4.90;;;;;;;14.13;nan;100075.47;4901678;29;20329;-80
2022/10/28 04:22:07;;;;;;;5.60;4.80;;;;;;;14.11;nan;100072.91;4901396;29;20213;-79
2022/10/28 04:24:33;;;;;;;6.82;4.82;;;;;;;14.14;nan;100077.13;4900110;29;20722;-79
2022/10/28 04:26:58;;;;;;;11.00;6.20;;;;;;;14.14;nan;100079.78;4898647;29;20182;-79
2022/10/28 04:29:24;;;;;;;11.57;6.23;;;;;;;14.15;nan;100081.50;4900766;29;20563;-79
2022/10/28 04:31:49;;;;;;;7.50;4.80;;;;;;;14.12;nan;100079.03;4901985;29;20187;-79
2022/10/28 04:34:14;;;;;;;9.23;5.60;;;;;;;14.09;nan;100082.75;4900201;29;20296;-79
2022/10/28 04:36:40;;;;;;;8.70;4.97;;;;;;;14.11;nan;100077.38;4903475;29;20671;-79
2022/10/28 04:39:05;;;;;;;6.77;4.10;;;;;;;14.11;nan;100066.78;4903687;29;20193;-79
2022/10/28 04:41:31;;;;;;;7.07;4.97;;;;;;;14.10;nan;100071.25;4903593;29;20187;-79
2022/10/28 04:43:56;;;;;;;8.33;4.63;;;;;;;14.12;nan;100073.75;4903973;29;20635;-79
2022/10/28 04:46:21;;;;;;;11.80;6.57;;;;;;;14.10;nan;100060.69;4904760;29;20198;-79
2022/10/28 04:48:47;;;;;;;11.90;5.27;;;;;;;14.11;nan;100072.91;4905730;29;20377;-79
2022/10/28 04:51:13;;;;;;;9.43;5.40;;;;;;;14.12;nan;100069.34;4904463;29;20199;-79
2022/10/28 04:53:38;;;;;;;8.90;5.70;;;;;;;14.15;nan;100076.22;4904965;29;20214;-79
2022/10/28 04:56:04;;;;;;;13.10;5.33;;;;;;;14.15;nan;100069.13;4905322;29;20427;-79
2022/10/28 04:58:29;;;;;;;8.80;5.17;;;;;;;14.15;nan;100063.00;4905642;29;20210;-79
2022/10/28 05:00:55;;;;;;;6.90;5.30;;;;;;;14.13;nan;100060.44;4236345;29;5008287;-79
2022/10/28 05:03:20;;;;;;;8.20;5.17;;;;;;;14.13;nan;100060.44;4907883;29;20659;-79
2022/10/28 05:05:46;;;;;;;9.97;5.90;;;;;;;14.15;nan;100069.13;4909530;29;20254;-79
2022/10/28 05:08:12;;;;;;;9.40;5.50;;;;;;;14.16;nan;100069.97;4905587;29;20214;-79
2022/10/28 05:10:37;;;;;;;8.67;6.43;;;;;;;14.16;nan;100065.50;4903733;29;20672;-79
2022/10/28 05:13:03;;;;;;;12.43;8.63;;;;;;;14.16;nan;100072.59;4907493;29;20514;-79
2022/10/28 05:15:30;;;;;;;13.80;8.63;;;;;;;14.16;nan;100072.59;4907215;29;20297;-79
2022/10/28 05:17:56;;;;;;;7.80;7.00;;;;;;;14.17;nan;100074.28;4908327;29;20193;-79
2022/10/28 05:20:21;;;;;;;12.20;7.20;;;;;;;14.16;nan;100076.09;4905414;29;20183;-79
2022/10/28 05:22:52;;;;;;;6.67;5.67;;;;;;;14.14;nan;100072.69;4907350;29;20905;-79
2022/10/28 05:25:18;;;;;;;11.32;6.30;;;;;;;14.15;nan;100063.00;4905599;29;20198;-79
2022/10/28 05:27:44;;;;;;;12.07;6.70;;;;;;;14.15;nan;100061.19;4908022;29;20214;-79
2022/10/28 05:30:11;;;;;;;16.60;7.20;;;;;;;14.14;nan;100054.19;4906393;29;20273;-79
2022/10/28 05:32:36;;;;;;;41.20;8.95;;;;;;;14.17;nan;100050.50;4906670;29;20471;-79
2022/10/28 05:35:02;;;;;;;28.83;9.33;;;;;;;14.18;nan;100057.50;4911798;23;20329;-75
2022/10/28 05:37:28;;;;;;;17.73;6.80;;;;;;;14.21;nan;100056.44;4889044;29;20542;-75
2022/10/28 05:39:53;;;;;;;9.77;6.40;;;;;;;14.23;nan;100055.38;4897310;29;20453;-75
2022/10/28 05:42:19;;;;;;;13.57;8.00;;;;;;;14.25;nan;100061.38;4900948;29;20282;-75
2022/10/28 05:44:44;;;;;;;15.90;7.83;;;;;;;14.27;nan;100058.63;4902640;29;20297;-75
2022/10/28 05:47:10;;;;;;;13.77;6.27;;;;;;;14.27;nan;100067.38;4903989;29;20484;-74
2022/10/28 05:49:35;;;;;;;11.30;6.70;;;;;;;14.27;nan;100061.25;4902748;29;20190;-73
2022/10/28 05:52:01;;;;;;;12.43;6.60;;;;;;;14.26;nan;100057.78;4903847;29;20206;-73
2022/10/28 05:54:26;;;;;;;11.37;6.33;;;;;;;14.28;nan;100061.13;4902412;29;20583;-72
2022/10/28 05:56:52;;;;;;;11.70;5.93;;;;;;;14.30;nan;100061.03;4896449;29;20627;-73
2022/10/28 05:59:17;;;;;;;14.73;7.93;;;;;;;14.32;nan;100064.44;4895835;29;20187;-73
2022/10/28 06:01:43;;;;;;;8.20;6.00;;;;;;;14.35;nan;100069.50;4898752;29;20186;-74
2022/10/28 06:04:08;;;;;;;12.63;5.60;;;;;;;14.36;nan;100055.31;4893899;29;20289;-73
2022/10/28 06:06:33;;;;;;;14.07;5.20;;;;;;;14.38;nan;100059.53;4894512;29;20191;-74
2022/10/28 06:08:59;;;;;;;17.90;8.30;;;;;;;14.41;nan;100069.03;4897743;29;20206;-73
2022/10/28 06:11:24;;;;;;;6.00;4.87;;;;;;;14.43;nan;100071.59;4895829;29;20210;-74
2022/10/28 06:13:50;;;;;;;9.67;5.60;;;;;;;14.44;nan;100073.25;4895258;29;20216;-74
2022/10/28 06:16:15;;;;;;;11.70;5.67;;;;;;;14.45;nan;100064.41;4895859;29;20187;-74
2022/10/28 06:18:42;;;;;;;7.78;6.25;;;;;;;14.44;nan;100070.63;4898697;29;20182;-73
2022/10/28 06:21:08;;;;;;;7.63;5.70;;;;;;;14.44;nan;100078.53;4898078;29;20206;-74
2022/10/28 06:23:33;;;;;;;13.17;10.47;;;;;;;14.44;nan;100073.25;4895198;29;20179;-74
2022/10/28 06:26:00;;;;;;;11.50;8.20;;;;;;;14.44;nan;100073.25;4899503;29;20265;-74
2022/10/28 06:28:26;;;;;;;13.70;8.88;;;;;;;14.44;nan;100075.91;4897217;29;20602;-74
2022/10/28 06:30:52;;;;;;;18.20;8.13;;;;;;;14.44;nan;100079.38;4898243;29;20260;-74
2022/10/28 06:33:17;;;;;;;14.37;8.23;;;;;;;14.44;nan;100073.25;4900273;29;20234;-74
2022/10/28 06:35:43;;;;;;;12.67;7.17;;;;;;;14.46;nan;100068.72;4900137;29;21027;-74
2022/10/28 06:38:09;;;;;;;13.90;7.18;;;;;;;14.47;nan;100076.50;4898991;29;20416;-74
2022/10/28 06:40:35;;;;;;;11.23;7.83;;;;;;;14.51;nan;100083.28;4900009;29;20183;-74
2022/10/28 06:43:06;;;;;;;11.10;6.90;;;;;;;14.55;nan;100091.84;4899501;29;20230;-74
2022/10/28 06:45:33;;;;;;;11.93;6.68;;;;;;;14.58;nan;100091.63;4899377;29;20220;-74
2022/10/28 06:48:02;;;;;;;12.48;7.80;;;;;;;14.63;nan;100092.13;4900137;29;20680;-74
2022/10/28 06:50:28;;;;;;;15.50;7.75;;;;;;;14.68;nan;100097.09;4899739;29;20383;-75
2022/10/28 06:52:56;;;;;;;14.15;7.95;;;;;;;14.74;nan;100105.44;4900963;29;20393;-74
2022/10/28 06:55:23;;;;;;;6.80;6.05;;;;;;;14.79;nan;100099.81;4898658;29;20484;-74
2022/10/28 06:57:48;;;;;;;7.63;6.35;;;;;;;14.85;nan;100109.09;4898534;29;20675;-74
2022/10/28 07:00:15;;;;;;;10.90;5.33;;;;;;;14.89;nan;100114.03;4899378;29;20400;-74
2022/10/28 07:02:40;;;;;;;10.85;6.43;;;;;;;14.95;nan;100102.16;4900738;29;20193;-74
2022/10/28 07:05:07;;;;;;;10.43;6.77;;;;;;;15.01;nan;100109.63;4913261;29;20202;-74
2022/10/28 07:07:33;;;;;;;9.75;6.20;;;;;;;15.07;nan;100103.91;4895517;29;20238;-74
2022/10/28 07:09:58;;;;;;;9.70;7.77;;;;;;;15.11;nan;100109.81;4898746;29;20235;-74
2022/10/28 07:12:26;;;;;;;14.57;10.20;;;;;;;15.13;nan;100103.44;4896876;29;20562;-74
2022/10/28 07:14:52;;;;;;;24.30;14.15;;;;;;;15.17;nan;100099.59;4897627;29;20210;-74
2022/10/28 07:17:18;;;;;;;13.60;8.80;;;;;;;15.23;nan;100112.41;4896266;29;20229;-73
2022/10/28 07:19:43;;;;;;;11.00;6.43;;;;;;;15.26;nan;100106.88;4897027;29;20319;-74
2022/10/28 07:22:08;;;;;;;7.10;5.20;;;;;;;15.33;nan;100114.34;4897009;29;20452;-74
2022/10/28 07:24:34;;;;;;;11.70;6.50;;;;;;;15.39;nan;100127.97;4895591;29;20323;-74
2022/10/28 07:26:59;;;;;;;8.37;7.03;;;;;;;15.42;nan;100140.97;4895327;29;20179;-74
2022/10/28 07:29:25;;;;;;;8.37;5.13;;;;;;;15.48;nan;100129.06;4896082;29;20190;-74
2022/10/28 07:31:53;;;;;;;7.13;5.53;;;;;;;15.51;nan;100128.84;4898742;29;20192;-76
2022/10/28 07:34:20;;;;;;;7.75;4.90;;;;;;;15.57;nan;100124.88;4895913;29;20206;-74
2022/10/28 07:36:50;;;;;;;6.95;4.63;;;;;;;15.63;nan;100135.81;4894343;29;20234;-74
2022/10/28 07:39:16;;;;;;;8.52;4.95;;;;;;;15.68;nan;100127.53;4896444;29;20183;-73
2022/10/28 07:41:42;;;;;;;8.70;5.90;;;;;;;15.74;nan;100127.09;4897879;29;20269;-75
2022/10/28 07:44:08;;;;;;;14.03;7.50;;;;;;;15.78;nan;100123.25;4894433;29;20341;-74
2022/10/28 07:46:34;;;;;;;9.70;6.70;;;;;;;15.82;nan;100118.56;4896610;29;20198;-74
2022/10/28 07:48:59;;;;;;;17.53;7.27;;;;;;;15.88;nan;100123.41;4898526;29;20332;-74
2022/10/28 07:51:25;;;;;;;9.27;6.83;;;;;;;15.92;nan;100138.09;4896248;29;20281;-74
2022/10/28 07:53:51;;;;;;;16.30;6.40;;;;;;;15.96;nan;100146.63;4896203;29;20217;-74
2022/10/28 07:56:17;;;;;;;11.03;6.77;;;;;;;15.98;nan;100142.91;4897844;29;20639;-74
2022/10/28 07:58:43;;;;;;;11.70;7.47;;;;;;;16.02;nan;100136.41;4897033;29;20487;-74
2022/10/28 08:01:13;;;;;;;8.50;6.03;;;;;;;16.07;nan;100142.19;4896596;29;20659;-74
2022/10/28 08:03:39;;;;;;;18.13;7.68;;;;;;;16.14;nan;100137.25;4899807;29;20619;-75
2022/10/28 08:06:16;;;;;;;18.98;7.10;;;;;;;16.20;nan;100130.63;4895840;29;20212;-74
2022/10/28 08:08:43;;;;;;;20.88;14.48;;;;;;;16.26;nan;100122.22;4896189;29;20226;-74
2022/10/28 08:11:11;;;;;;;14.85;11.73;;;;;;;16.34;nan;100133.06;4894872;29;20191;-74
2022/10/28 08:13:36;;;;;;;11.95;8.50;;;;;;;16.42;nan;100140.38;4894861;29;20213;-75
2022/10/28 08:16:02;;;;;;;10.47;7.07;;;;;;;16.49;nan;100130.97;4895503;29;20790;-75
2022/10/28 08:18:27;;;;;;;10.23;6.83;;;;;;;16.58;nan;100135.56;4894630;29;20188;-74
2022/10/28 08:20:53;;;;;;;9.90;7.43;;;;;;;16.67;nan;100141.91;4894891;29;20242;-74
2022/10/28 08:23:18;;;;;;;25.60;9.37;;;;;;;16.76;nan;100135.88;4896190;29;20214;-74
2022/10/28 08:25:48;;;;;;;14.20;8.00;;;;;;;16.86;nan;100138.66;4898234;29;20306;-74
2022/10/28 08:28:14;;;;;;;19.42;6.65;;;;;;;16.95;nan;100125.47;4895720;29;20266;-74
2022/10/28 08:30:39;;;;;;;6.27;5.67;;;;;;;17.06;nan;100129.06;4895889;29;20202;-75
2022/10/28 08:33:04;;;;;;;7.13;5.50;;;;;;;17.18;nan;100128.88;4896629;29;20286;-74
2022/10/28 08:35:30;;;;;;;20.03;11.00;;;;;;;17.67;nan;100118.59;4896428;29;20295;-74
2022/10/28 08:37:55;;;;;;;14.67;9.73;;;;;;;18.44;nan;100117.28;4896476;29;20194;-75
2022/10/28 08:40:33;;;;;;;14.70;6.33;;;;;;;19.51;nan;100118.25;4899936;29;20197;-74
2022/10/28 08:43:26;;;;;;;10.75;7.13;;;;;;;20.82;nan;100113.81;4897321;29;20183;-75
2022/10/28 08:46:14;;;;;;;10.60;6.83;;;;;;;22.19;nan;100106.19;4898431;29;20226;-75
2022/10/28 08:48:40;;;;;;;13.47;7.10;;;;;;;23.25;nan;100110.97;4900077;29;20605;-75
2022/10/28 08:51:09;;;;;;;7.03;4.30;;;;;;;24.10;nan;100121.28;4899456;29;20445;-75
2022/10/28 08:53:41;;;;;;;7.30;4.82;;;;;;;24.75;nan;100109.44;4897997;29;20413;-75
2022/10/28 08:56:14;;;;;;;5.90;3.90;;;;;;;24.94;nan;100107.13;4899600;29;20208;-75
2022/10/28 08:58:44;;;;;;;5.27;4.20;;;;;;;25.13;nan;100100.44;4900868;29;20970;-75
2022/10/28 09:01:21;;;;;;;8.60;4.47;;;;;;;25.22;nan;100103.06;4896508;29;20454;-75
2022/10/28 09:03:50;;;;;;;12.07;5.03;;;;;;;25.38;nan;100097.56;4898871;29;20959;-75
2022/10/28 09:06:15;;;;;;;8.47;4.20;;;;;;;25.20;nan;100097.91;4899238;29;20528;-75
2022/10/28 09:08:47;;;;;;;13.57;4.50;;;;;;;24.81;nan;100100.66;4896456;29;20468;-75
2022/10/28 09:11:34;;;;;;;23.50;5.80;;;;;;;24.49;nan;100121.31;4899723;29;20189;-75
2022/10/28 09:14:16;;;;;;;15.53;7.07;;;;;;;24.19;nan;100114.88;4899487;29;20622;-75
2022/10/28 09:16:46;;;;;;;12.13;5.50;;;;;;;24.03;nan;100113.94;4899482;29;20453;-77
2022/10/28 09:19:34;;;;;;;13.27;5.20;;;;;;;23.90;nan;100123.50;4897266;29;20492;-75
2022/10/28 09:22:22;;;;;;;7.80;4.80;;;;;;;23.50;nan;100119.88;4898848;29;20469;-75
2022/10/28 09:24:52;;;;;;;11.33;5.93;;;;;;;23.01;nan;100123.38;4899019;29;20446;-75
2022/10/28 09:27:48;;;;;;;8.33;4.60;;;;;;;22.68;nan;100120.63;4896937;29;20435;-75
2022/10/28 09:30:41;;;;;;;7.63;5.57;;;;;;;22.68;nan;100109.91;4898308;29;20475;-76
2022/10/28 09:33:27;;;;;;;12.27;8.87;;;;;;;22.83;nan;100122.66;4898565;29;20420;-75
2022/10/28 09:35:54;;;;;;;10.37;8.17;;;;;;;23.06;nan;100122.88;4896317;29;20584;-74
2022/10/28 09:38:27;;;;;;;7.27;5.63;;;;;;;23.25;nan;100125.25;4898564;29;20444;-75
2022/10/28 09:41:10;;;;;;;9.13;3.70;;;;;;;23.38;nan;100122.88;4900026;29;20601;-75
2022/10/28 09:43:44;;;;;;;9.40;5.10;;;;;;;23.40;nan;100125.41;4898970;29;20448;-74
2022/10/28 09:46:13;;;;;;;10.27;5.00;;;;;;;23.44;nan;100120.53;4899649;29;20458;-75
2022/10/28 09:48:43;;;;;;;9.00;4.30;;;;;;;23.25;nan;100111.84;4896717;29;20459;-75
2022/10/28 09:51:53;;;;;;;12.97;4.70;;;;;;;22.96;nan;100105.13;4898303;29;21570;-74
2022/10/28 09:54:37;;;;;;;6.57;4.50;;;;;;;22.71;nan;100098.00;4886491;29;20461;-74
2022/10/28 09:57:03;;;;;;;10.57;5.07;;;;;;;22.49;nan;100088.75;4897527;29;20865;-74
2022/10/28 09:59:29;;;;;;;10.03;4.60;;;;;;;22.23;nan;100089.66;4898866;29;20701;-75
2022/10/28 10:01:54;;;;;;;6.67;4.43;;;;;;;22.03;nan;100096.22;4899829;29;20461;-74
2022/10/28 10:04:22;;;;;;;10.40;5.53;;;;;;;21.88;nan;100086.13;4894280;29;20446;-75
2022/10/28 10:06:55;;;;;;;8.83;5.43;;;;;;;21.75;nan;100085.72;4898030;29;20274;-74
2022/10/28 10:09:27;;;;;;;8.10;5.57;;;;;;;21.64;nan;100085.97;4897977;29;20782;-74
2022/10/28 10:12:01;;;;;;;6.27;4.87;;;;;;;21.61;nan;100086.31;4899182;29;20444;-74
2022/10/28 10:14:35;;;;;;;8.47;4.60;;;;;;;21.60;nan;100081.94;4898293;29;20858;-74
2022/10/28 10:17:11;;;;;;;7.53;4.97;;;;;;;21.62;nan;100096.00;4897651;29;20959;-75
2022/10/28 10:19:59;;;;;;;12.50;6.10;;;;;;;21.60;nan;100106.00;4897489;29;20443;-75
2022/10/28 10:22:30;;;;;;;11.30;5.43;;;;;;;21.65;nan;100106.38;4895882;29;20459;-74
2022/10/28 10:24:55;;;;;;;9.50;5.23;;;;;;;21.72;nan;100102.06;4895720;29;20436;-75
2022/10/28 10:27:21;;;;;;;16.67;4.87;;;;;;;21.82;nan;100086.78;4896662;29;20431;-74
2022/10/28 10:29:49;;;;;;;7.90;4.77;;;;;;;21.94;nan;100084.66;4896560;29;20184;-75
2022/10/28 10:32:17;;;;;;;7.30;4.43;;;;;;;22.05;nan;100080.84;4893817;29;20517;-74
2022/10/28 10:34:48;;;;;;;10.73;5.70;;;;;;;22.15;nan;100086.94;4896775;29;21382;-74
2022/10/28 10:37:21;;;;;;;25.73;17.07;;;;;;;22.25;nan;100090.34;4898131;29;20423;-74
2022/10/28 10:40:01;;;;;;;6.43;4.73;;;;;;;22.34;nan;100082.34;4897407;29;20811;-74
2022/10/28 10:42:26;;;;;;;12.07;6.43;;;;;;;22.37;nan;100084.69;4898682;29;20526;-74
2022/10/28 10:45:15;;;;;;;9.27;6.00;;;;;;;22.38;nan;100081.00;4898893;29;20451;-74
2022/10/28 10:47:40;;;;;;;10.60;9.10;;;;;;;22.41;nan;100086.88;4897747;29;20573;-74
2022/10/28 10:50:31;;;;;;;6.07;4.87;;;;;;;22.47;nan;100080.88;4898147;29;20945;-74
2022/10/28 10:52:59;;;;;;;8.47;5.83;;;;;;;22.60;nan;100075.06;4897884;29;20200;-74
2022/10/28 10:55:35;;;;;;;6.13;5.10;;;;;;;22.72;nan;100075.59;4895157;29;20575;-74
2022/10/28 10:58:02;;;;;;;8.43;5.70;;;;;;;22.82;nan;100084.31;4896513;29;20883;-74
2022/10/28 11:00:36;;;;;;;13.17;7.07;;;;;;;22.87;nan;100076.63;4894958;29;21234;-75
2022/10/28 11:03:04;;;;;;;14.23;5.10;;;;;;;22.89;nan;100077.28;4896457;29;20414;-74
2022/10/28 11:05:30;;;;;;;20.80;9.83;;;;;;;23.00;nan;100070.78;4893323;29;21718;-73
2022/10/28 11:07:58;;;;;;;8.20;5.37;;;;;;;23.14;nan;100066.59;4899742;29;20468;-74
2022/10/28 11:10:29;;;;;;;11.53;5.53;;;;;;;23.28;nan;100068.63;4898423;29;20459;-75
2022/10/28 11:12:58;;;;;;;10.37;5.90;;;;;;;23.43;nan;100066.06;4898643;29;20416;-75
2022/10/28 11:15:32;;;;;;;8.50;4.37;;;;;;;23.52;nan;100069.56;4898648;29;20480;-74
2022/10/28 11:18:15;;;;;;;9.90;5.20;;;;;;;23.58;nan;100063.56;4899348;29;20528;-74
2022/10/28 11:20:56;;;;;;;6.10;4.00;;;;;;;23.61;nan;100064.03;4897502;29;20420;-74
2022/10/28 11:23:51;;;;;;;6.03;4.30;;;;;;;23.64;nan;100061.00;4898406;29;20421;-74
2022/10/28 11:26:18;;;;;;;7.50;4.13;;;;;;;23.66;nan;100054.66;4890194;29;20434;-74
2022/10/28 11:29:14;;;;;;;5.90;3.73;;;;;;;23.68;nan;100047.25;4895635;29;20457;-75
2022/10/28 11:32:01;;;;;;;58.47;17.30;;;;;;;23.73;nan;100051.13;4895823;29;20485;-74
2022/10/28 11:37:23;;;;;;;31.87;21.80;;;;;;;23.91;nan;100058.97;4886460;29;20478;-82
2022/10/28 11:40:26;;;;;;;109.57;56.13;;;;;;;24.01;nan;100056.91;4895697;29;21104;-82
2022/10/28 11:43:16;;;;;;;12.03;4.50;;;;;;;24.11;nan;100042.44;4905163;29;20493;-82
2022/10/28 11:45:56;;;;;;;9.77;5.27;;;;;;;24.18;nan;100048.78;4903361;29;20773;-82
2022/10/28 11:49:02;;;;;;;12.30;5.40;;;;;;;24.27;nan;100039.69;4898092;29;20445;-82
2022/10/28 11:51:51;;;;;;;7.77;3.80;;;;;;;24.26;nan;100036.16;4921857;29;20442;-82
2022/10/28 11:54:34;;;;;;;8.07;4.80;;;;;;;24.25;nan;100030.97;4904710;29;20457;-82